createdAt,value
2018-01-25T00:00:42.320Z,97434.02
2018-01-25T00:03:11.542Z,97436.25
2018-01-25T00:05:39.178Z,97436.36
2018-01-25T00:08:06.901Z,97434.86
2018-01-25T00:10:34.606Z,97430.73
2018-01-25T00:13:02.340Z,97431.91
2018-01-25T00:15:29.927Z,97426.31
2018-01-25T00:17:57.597Z,97433.89
2018-01-25T00:20:25.129Z,97426.22
2018-01-25T00:22:52.642Z,97419.36
2018-01-25T00:25:20.578Z,97426.02
2018-01-25T00:27:48.253Z,97428.53
2018-01-25T00:30:15.796Z,97423.89
2018-01-25T00:32:44.277Z,97427.87
2018-01-25T00:35:11.853Z,97426.51
2018-01-25T00:37:39.599Z,97427.38
2018-01-25T00:40:07.097Z,97422.92
2018-01-25T00:42:34.614Z,97429.78
2018-01-25T00:45:02.176Z,97422.33
2018-01-25T00:47:29.675Z,97419.66
2018-01-25T00:49:57.465Z,97420.47
2018-01-25T00:52:25.001Z,97413.16
2018-01-25T00:54:52.617Z,97417.67
2018-01-25T00:57:20.161Z,97411.25
2018-01-25T00:59:47.666Z,97413.73
2018-01-25T01:02:15.228Z,97420.20
2018-01-25T01:04:42.737Z,97408.68
2018-01-25T01:07:11.231Z,97417.31
2018-01-25T01:09:39.847Z,97412.64
2018-01-25T01:12:07.372Z,97421.14
2018-01-25T01:14:34.932Z,97420.35
2018-01-25T01:17:02.441Z,97418.16
2018-01-25T01:19:29.941Z,97424.44
2018-01-25T01:21:57.508Z,97422.34
2018-01-25T01:24:25.004Z,97418.50
2018-01-25T01:26:52.537Z,97418.16
2018-01-25T01:29:20.123Z,97420.11
2018-01-25T01:31:47.654Z,97416.02
2018-01-25T01:34:15.189Z,97416.28
2018-01-25T01:36:42.698Z,97417.84
2018-01-25T01:39:10.249Z,97416.80
2018-01-25T01:41:38.685Z,97417.16
2018-01-25T01:44:06.186Z,97416.77
2018-01-25T01:46:33.741Z,97414.11
2018-01-25T01:49:01.241Z,97402.93
2018-01-25T01:51:29.008Z,97401.97
2018-01-25T01:53:56.518Z,97404.47
2018-01-25T01:56:24.051Z,97407.03
2018-01-25T01:58:51.609Z,97403.36
2018-01-25T02:01:19.112Z,97412.68
2018-01-25T02:03:46.652Z,97408.98
2018-01-25T02:06:14.186Z,97404.53
2018-01-25T02:08:41.697Z,97409.29
2018-01-25T02:11:09.225Z,97404.20
2018-01-25T02:13:36.760Z,97398.68
2018-01-25T02:16:04.524Z,97392.89
2018-01-25T02:18:32.026Z,97400.56
2018-01-25T02:20:59.549Z,97397.91
2018-01-25T02:23:27.113Z,97388.61
2018-01-25T02:25:54.659Z,97388.88
2018-01-25T02:28:22.204Z,97382.28
2018-01-25T02:30:49.715Z,97382.58
2018-01-25T02:33:17.239Z,97378.14
2018-01-25T02:35:44.767Z,97381.23
2018-01-25T02:38:12.277Z,97376.11
2018-01-25T02:40:39.833Z,97384.87
2018-01-25T02:43:07.341Z,97387.37
2018-01-25T02:45:34.870Z,97381.47
2018-01-25T02:48:02.402Z,97383.73
2018-01-25T02:50:29.910Z,97379.70
2018-01-25T02:52:57.604Z,97375.94
2018-01-25T02:55:25.113Z,97380.92
2018-01-25T02:57:52.621Z,97384.14
2018-01-25T03:00:20.187Z,97386.41
2018-01-25T03:02:47.681Z,97379.89
2018-01-25T03:05:15.504Z,97386.84
2018-01-25T03:07:43.005Z,97383.60
2018-01-25T03:10:11.032Z,97386.16
2018-01-25T03:12:38.589Z,97387.63
2018-01-25T03:15:06.089Z,97389.59
2018-01-25T03:17:33.638Z,97391.34
2018-01-25T03:20:01.166Z,97390.72
2018-01-25T03:22:28.727Z,97389.08
2018-01-25T03:24:56.692Z,97391.27
2018-01-25T03:27:24.192Z,97393.02
2018-01-25T03:29:52.030Z,97394.06
2018-01-25T03:32:19.582Z,97397.19
2018-01-25T03:34:47.085Z,97397.78
2018-01-25T03:37:14.617Z,97399.00
2018-01-25T03:39:42.150Z,97404.45
2018-01-25T03:42:10.016Z,97402.03
2018-01-25T03:44:37.515Z,97394.73
2018-01-25T03:47:05.544Z,97400.69
2018-01-25T03:49:33.207Z,97393.33
2018-01-25T03:52:00.774Z,97394.98
2018-01-25T03:54:28.564Z,97390.62
2018-01-25T03:56:56.089Z,97386.22
2018-01-25T03:59:23.586Z,97375.50
2018-01-25T04:01:51.125Z,97382.46
2018-01-25T04:04:18.624Z,97379.67
2018-01-25T04:06:46.291Z,97383.83
2018-01-25T04:09:13.797Z,97374.95
2018-01-25T04:11:41.338Z,97379.00
2018-01-25T04:14:08.900Z,97386.00
2018-01-25T04:16:36.409Z,97388.73
2018-01-25T04:19:04.096Z,97384.77
2018-01-25T04:21:31.592Z,97385.86
2018-01-25T04:23:59.138Z,97383.58
2018-01-25T04:26:26.736Z,97379.97
2018-01-25T04:28:54.257Z,97384.63
2018-01-25T04:31:21.824Z,97383.50
2018-01-25T04:33:49.372Z,97369.38
2018-01-25T04:36:16.877Z,97368.55
2018-01-25T04:38:44.404Z,97366.74
2018-01-25T04:41:11.908Z,97367.84
2018-01-25T04:43:39.541Z,97366.77
2018-01-25T04:46:07.048Z,97361.77
2018-01-25T04:48:34.553Z,97361.70
2018-01-25T04:51:02.090Z,97364.58
2018-01-25T04:53:29.592Z,97363.94
2018-01-25T04:55:57.251Z,97357.13
2018-01-25T04:58:24.757Z,97357.13
2018-01-25T05:00:52.264Z,97352.88
2018-01-25T05:03:19.802Z,97358.80
2018-01-25T05:05:47.334Z,97360.86
2018-01-25T05:08:14.878Z,97361.75
2018-01-25T05:10:42.380Z,97358.89
2018-01-25T05:13:09.888Z,97363.45
2018-01-25T05:15:37.423Z,97356.91
2018-01-25T05:18:04.932Z,97351.63
2018-01-25T05:20:32.469Z,97352.28
2018-01-25T05:22:59.975Z,97349.97
2018-01-25T05:25:27.552Z,97348.06
2018-01-25T05:27:55.065Z,97342.04
2018-01-25T05:30:22.589Z,97338.75
2018-01-25T05:32:50.178Z,97337.77
2018-01-25T05:35:17.738Z,97340.16
2018-01-25T05:37:45.477Z,97341.11
2018-01-25T05:40:12.977Z,97346.96
2018-01-25T05:42:40.517Z,97349.80
2018-01-25T05:45:08.149Z,97350.27
2018-01-25T05:47:35.681Z,97346.25
2018-01-25T05:50:03.369Z,97350.42
2018-01-25T05:52:30.887Z,97356.75
2018-01-25T05:54:58.397Z,97350.69
2018-01-25T05:57:25.930Z,97344.48
2018-01-25T05:59:53.437Z,97341.04
2018-01-25T06:02:21.001Z,97337.77
2018-01-25T06:04:48.505Z,97343.02
2018-01-25T06:07:16.008Z,97348.19
2018-01-25T06:09:43.565Z,97345.42
2018-01-25T06:12:11.073Z,97336.18
2018-01-25T06:14:38.616Z,97346.19
2018-01-25T06:17:06.126Z,97342.05
2018-01-25T06:19:33.633Z,97346.28
2018-01-25T06:22:01.160Z,97346.05
2018-01-25T06:24:28.715Z,97349.33
2018-01-25T06:26:56.269Z,97355.61
2018-01-25T06:29:23.776Z,97353.03
2018-01-25T06:31:51.276Z,97344.34
2018-01-25T06:34:18.799Z,97353.71
2018-01-25T06:36:46.309Z,97351.77
2018-01-25T06:39:13.969Z,97347.83
2018-01-25T06:41:41.527Z,97347.56
2018-01-25T06:44:09.033Z,97350.91
2018-01-25T06:46:36.565Z,97352.12
2018-01-25T06:49:04.102Z,97358.80
2018-01-25T06:51:31.865Z,97359.75
2018-01-25T06:53:59.425Z,97361.88
2018-01-25T06:56:26.930Z,97365.13
2018-01-25T06:58:54.480Z,97357.25
2018-01-25T07:01:21.985Z,97363.08
2018-01-25T07:03:49.559Z,97357.32
2018-01-25T07:06:17.059Z,97355.05
2018-01-25T07:08:44.567Z,97358.35
2018-01-25T07:11:12.119Z,97359.21
2018-01-25T07:13:39.620Z,97358.05
2018-01-25T07:16:07.184Z,97358.11
2018-01-25T07:18:34.688Z,97359.98
2018-01-25T07:21:02.186Z,97362.33
2018-01-25T07:23:29.713Z,97360.50
2018-01-25T07:25:57.216Z,97357.25
2018-01-25T07:28:24.946Z,97355.50
2018-01-25T07:30:52.445Z,97364.29
2018-01-25T07:33:20.166Z,97358.25
2018-01-25T07:35:48.137Z,97354.13
2018-01-25T07:38:16.215Z,97356.42
2018-01-25T07:40:43.868Z,97353.52
2018-01-25T07:43:11.368Z,97351.16
2018-01-25T07:45:38.884Z,97345.77
2018-01-25T07:48:06.425Z,97342.03
2018-01-25T07:50:33.934Z,97338.34
2018-01-25T07:53:01.663Z,97337.78
2018-01-25T07:55:29.222Z,97338.34
2018-01-25T08:00:55.409Z,97336.94
2018-01-25T08:03:23.182Z,97337.86
2018-01-25T08:05:50.693Z,97335.58
2018-01-25T08:08:18.245Z,97335.08
2018-01-25T08:10:45.808Z,97339.45
2018-01-25T08:13:18.823Z,97332.19
2018-01-25T08:15:46.370Z,97341.73
2018-01-25T08:18:13.916Z,97338.73
2018-01-25T08:20:41.904Z,97332.22
2018-01-25T08:23:09.449Z,97337.05
2018-01-25T08:25:36.952Z,97339.88
2018-01-25T08:28:05.386Z,97334.72
2018-01-25T08:30:33.742Z,97329.02
2018-01-25T08:33:01.626Z,97336.87
2018-01-25T08:35:29.184Z,97327.44
2018-01-25T08:37:56.696Z,97325.70
2018-01-25T08:40:24.228Z,97323.05
2018-01-25T08:42:51.758Z,97324.28
2018-01-25T08:45:19.493Z,97328.59
2018-01-25T08:47:47.001Z,97336.77
2018-01-25T08:50:14.504Z,97340.59
2018-01-25T08:52:42.038Z,97337.66
2018-01-25T08:55:09.550Z,97333.84
2018-01-25T08:57:37.236Z,97333.25
2018-01-25T09:00:04.775Z,97341.05
2018-01-25T09:02:32.285Z,97330.78
2018-01-25T09:04:59.811Z,97327.98
2018-01-25T09:07:27.350Z,97327.68
2018-01-25T09:09:55.124Z,97333.45
2018-01-25T09:12:22.636Z,97327.84
2018-01-25T09:14:50.153Z,97332.27
2018-01-25T09:17:17.709Z,97332.38
2018-01-25T09:19:45.248Z,97327.31
2018-01-25T09:22:13.122Z,97323.11
2018-01-25T09:24:40.634Z,97320.31
2018-01-25T09:27:08.150Z,97321.09
2018-01-25T09:29:35.705Z,97323.31
2018-01-25T09:32:03.220Z,97321.77
2018-01-25T09:34:30.809Z,97325.30
2018-01-25T09:36:58.369Z,97322.05
2018-01-25T09:39:25.873Z,97323.44
2018-01-25T09:41:53.402Z,97325.34
2018-01-25T09:44:20.942Z,97327.76
2018-01-25T09:46:48.503Z,97326.55
2018-01-25T09:49:16.009Z,97331.58
2018-01-25T09:51:43.700Z,97325.91
2018-01-25T09:54:11.293Z,97319.76
2018-01-25T09:56:38.841Z,97325.76
2018-01-25T09:59:06.588Z,97318.09
2018-01-25T10:01:34.085Z,97321.30
2018-01-25T10:04:01.586Z,97315.41
2018-01-25T10:06:29.115Z,97310.05
2018-01-25T10:08:56.623Z,97318.30
2018-01-25T10:11:24.298Z,97316.56
2018-01-25T10:13:51.804Z,97310.18
2018-01-25T10:16:19.328Z,97307.66
2018-01-25T10:18:46.873Z,97308.64
2018-01-25T10:21:14.372Z,97306.22
2018-01-25T10:23:41.933Z,97310.61
2018-01-25T10:26:09.448Z,97307.60
2018-01-25T10:28:36.965Z,97308.27
2018-01-25T10:31:04.489Z,97304.27
2018-01-25T10:33:32.946Z,97298.59
2018-01-25T10:36:00.844Z,97297.59
2018-01-25T10:38:28.373Z,97296.83
2018-01-25T10:40:55.944Z,97294.06
2018-01-25T10:43:23.499Z,97294.78
2018-01-25T10:45:51.116Z,97287.14
2018-01-25T10:48:18.745Z,97288.91
2018-01-25T10:50:46.261Z,97292.95
2018-01-25T10:53:13.942Z,97287.22
2018-01-25T10:55:42.411Z,97281.48
2018-01-25T10:58:09.924Z,97277.47
2018-01-25T11:00:43.008Z,97270.97
2018-01-25T11:03:10.514Z,97261.22
2018-01-25T11:05:38.023Z,97265.60
2018-01-25T11:08:06.043Z,97266.55
2018-01-25T11:10:33.553Z,97265.53
2018-01-25T11:13:01.101Z,97262.94
2018-01-25T11:15:28.613Z,97258.06
2018-01-25T11:17:56.116Z,97255.27
2018-01-25T11:20:23.647Z,97248.70
2018-01-25T11:22:51.158Z,97253.11
2018-01-25T11:25:18.695Z,97249.00
2018-01-25T11:27:46.236Z,97243.08
2018-01-25T11:30:13.923Z,97242.69
2018-01-25T11:32:42.169Z,97233.22
2018-01-25T11:35:09.676Z,97231.50
2018-01-25T11:37:37.254Z,97230.51
2018-01-25T11:40:04.765Z,97225.98
2018-01-25T11:42:32.271Z,97220.92
2018-01-25T11:44:59.797Z,97225.66
2018-01-25T11:47:27.317Z,97219.97
2018-01-25T11:49:54.888Z,97218.98
2018-01-25T11:52:22.416Z,97220.09
2018-01-25T11:54:49.979Z,97220.55
2018-01-25T11:57:17.532Z,97215.23
2018-01-25T11:59:45.490Z,97209.63
2018-01-25T12:02:13.061Z,97205.78
2018-01-25T12:04:40.621Z,97205.58
2018-01-25T12:07:08.095Z,97200.41
2018-01-25T12:09:35.695Z,97191.60
2018-01-25T12:12:03.403Z,97197.08
2018-01-25T12:14:31.163Z,97190.41
2018-01-25T12:16:58.668Z,97196.54
2018-01-25T12:19:26.192Z,97189.62
2018-01-25T12:21:53.747Z,97187.59
2018-01-25T12:24:22.324Z,97186.33
2018-01-25T12:26:50.085Z,97185.84
2018-01-25T12:29:18.547Z,97181.06
2018-01-25T12:31:46.077Z,97174.86
2018-01-25T12:34:13.608Z,97175.48
2018-01-25T12:36:41.142Z,97170.91
2018-01-25T12:39:08.796Z,97167.59
2018-01-25T12:41:36.305Z,97160.97
2018-01-25T12:44:03.825Z,97156.48
2018-01-25T12:46:32.103Z,97147.58
2018-01-25T12:48:59.658Z,97140.28
2018-01-25T12:51:27.209Z,97144.84
2018-01-25T12:53:54.708Z,97140.53
2018-01-25T12:56:22.218Z,97136.24
2018-01-25T12:58:49.757Z,97134.01
2018-01-25T13:01:17.273Z,97127.91
2018-01-25T13:03:45.152Z,97132.16
2018-01-25T13:06:12.875Z,97126.36
2018-01-25T13:08:40.377Z,97126.33
2018-01-25T13:11:07.904Z,97125.75
2018-01-25T13:13:35.452Z,97123.88
2018-01-25T13:16:03.013Z,97124.83
2018-01-25T13:18:30.570Z,97113.33
2018-01-25T13:20:58.074Z,97111.37
2018-01-25T13:23:25.698Z,97109.42
2018-01-25T13:25:53.249Z,97110.76
2018-01-25T13:28:21.010Z,97107.85
2018-01-25T13:30:48.982Z,97106.73
2018-01-25T13:33:22.244Z,97101.22
2018-01-25T13:35:49.751Z,97098.85
2018-01-25T13:38:17.254Z,97097.04
2018-01-25T13:40:44.792Z,97088.17
2018-01-25T13:43:12.297Z,97083.06
2018-01-25T13:45:39.876Z,97085.12
2018-01-25T13:48:07.370Z,97074.91
2018-01-25T13:50:34.878Z,97077.80
2018-01-25T13:53:02.408Z,97071.66
2018-01-25T13:55:29.913Z,97073.78
2018-01-25T13:57:57.660Z,97076.24
2018-01-25T14:00:25.219Z,97076.16
2018-01-25T14:02:52.725Z,97072.28
2018-01-25T14:05:20.261Z,97068.67
2018-01-25T14:07:47.772Z,97067.14
2018-01-25T14:10:15.557Z,97063.97
2018-01-25T14:12:43.119Z,97063.59
2018-01-25T14:15:10.679Z,97062.88
2018-01-25T14:17:38.237Z,97055.84
2018-01-25T14:20:05.797Z,97055.93
2018-01-25T14:22:33.558Z,97052.72
2018-01-25T14:25:01.086Z,97055.84
2018-01-25T14:27:28.610Z,97063.23
2018-01-25T14:29:56.309Z,97059.39
2018-01-25T14:32:23.846Z,97052.58
2018-01-25T14:34:51.407Z,97052.45
2018-01-25T14:37:18.909Z,97057.64
2018-01-25T14:39:46.516Z,97057.88
2018-01-25T14:42:14.043Z,97061.22
2018-01-25T14:44:41.591Z,97059.11
2018-01-25T14:47:09.140Z,97059.06
2018-01-25T14:49:36.813Z,97061.41
2018-01-25T14:52:04.321Z,97058.36
2018-01-25T14:54:32.023Z,97062.16
2018-01-25T14:56:59.514Z,97061.87
2018-01-25T14:59:27.152Z,97066.92
2018-01-25T15:01:54.709Z,97063.69
2018-01-25T15:04:22.248Z,97061.98
2018-01-25T15:06:49.774Z,97064.25
2018-01-25T15:09:17.381Z,97065.20
2018-01-25T15:11:44.913Z,97059.87
2018-01-25T15:14:12.507Z,97054.73
2018-01-25T15:16:40.025Z,97060.70
2018-01-25T15:19:07.558Z,97062.59
2018-01-25T15:21:35.142Z,97060.64
2018-01-25T15:24:02.867Z,97061.24
2018-01-25T15:26:30.385Z,97060.78
2018-01-25T15:28:57.901Z,97062.73
2018-01-25T15:31:25.433Z,97061.55
2018-01-25T15:33:53.369Z,97067.62
2018-01-25T15:36:20.913Z,97066.61
2018-01-25T15:38:48.611Z,97080.88
2018-01-25T15:41:16.189Z,97068.50
2018-01-25T15:43:43.776Z,97074.42
2018-01-25T15:46:11.314Z,97081.30
2018-01-25T15:48:38.880Z,97081.00
2018-01-25T15:51:06.407Z,97078.00
2018-01-25T15:53:33.931Z,97074.28
2018-01-25T15:56:01.481Z,97075.45
2018-01-25T15:58:29.187Z,97072.88
2018-01-25T16:00:56.745Z,97073.08
2018-01-25T16:03:24.320Z,97075.80
2018-01-25T16:05:51.864Z,97067.46
2018-01-25T16:08:21.676Z,97064.84
2018-01-25T16:10:49.236Z,97068.15
2018-01-25T16:13:17.203Z,97068.14
2018-01-25T16:15:44.763Z,97059.46
2018-01-25T16:18:18.368Z,97056.42
2018-01-25T16:20:45.879Z,97064.95
2018-01-25T16:23:13.390Z,97054.69
2018-01-25T16:25:40.952Z,97043.63
2018-01-25T16:28:08.905Z,97049.75
2018-01-25T16:30:36.876Z,97047.36
2018-01-25T16:33:04.616Z,97049.46
2018-01-25T16:35:32.202Z,97049.94
2018-01-25T16:37:59.758Z,97041.39
2018-01-25T16:40:28.078Z,97048.22
2018-01-25T16:42:55.672Z,97043.42
2018-01-25T16:45:23.441Z,97046.70
2018-01-25T16:47:51.226Z,97042.17
2018-01-25T16:50:18.805Z,97047.70
2018-01-25T16:52:46.381Z,97046.66
2018-01-25T16:55:14.211Z,97040.02
2018-01-25T16:57:41.744Z,97045.70
2018-01-25T17:00:09.288Z,97039.41
2018-01-25T17:02:36.887Z,97043.58
2018-01-25T17:05:04.558Z,97053.11
2018-01-25T17:07:32.226Z,97053.84
2018-01-25T17:10:00.127Z,97050.31
2018-01-25T17:12:28.046Z,97049.64
2018-01-25T17:14:56.014Z,97041.11
2018-01-25T17:17:23.784Z,97042.23
2018-01-25T17:19:51.849Z,97043.84
2018-01-25T17:22:19.571Z,97050.47
2018-01-25T17:24:47.274Z,97043.23
2018-01-25T17:27:15.141Z,97038.09
2018-01-25T17:29:43.007Z,97043.47
2018-01-25T17:32:11.089Z,97043.33
2018-01-25T17:34:38.863Z,97049.17
2018-01-25T17:37:07.121Z,97051.38
2018-01-25T17:39:34.781Z,97055.95
2018-01-25T17:42:02.439Z,97050.76
2018-01-25T17:44:31.442Z,97060.89
2018-01-25T17:46:59.404Z,97056.97
2018-01-25T17:49:28.100Z,97058.80
2018-01-25T17:51:56.059Z,97066.28
2018-01-25T17:54:23.655Z,97059.98
2018-01-25T17:56:51.608Z,97056.15
2018-01-25T17:59:19.562Z,97056.17
2018-01-25T18:01:47.333Z,97054.34
2018-01-25T18:04:15.866Z,97053.52
2018-01-25T18:06:44.176Z,97062.00
2018-01-25T18:09:12.151Z,97064.18
2018-01-25T18:11:40.218Z,97072.39
2018-01-25T18:14:07.986Z,97075.09
2018-01-25T18:16:36.011Z,97069.91
2018-01-25T18:19:03.714Z,97075.83
2018-01-25T18:21:32.729Z,97081.11
2018-01-25T18:24:00.734Z,97081.98
2018-01-25T18:26:28.747Z,97080.36
2018-01-25T18:28:57.319Z,97078.47
2018-01-25T18:31:25.197Z,97081.50
2018-01-25T18:33:53.017Z,97079.17
2018-01-25T18:36:20.851Z,97081.88
2018-01-25T18:38:48.918Z,97072.38
2018-01-25T18:41:16.764Z,97066.73
2018-01-25T18:43:45.143Z,97068.74
2018-01-25T18:46:13.316Z,97059.01
2018-01-25T18:48:41.287Z,97060.14
2018-01-25T18:51:09.221Z,97064.78
2018-01-25T18:53:38.041Z,97062.47
2018-01-25T18:56:06.011Z,97064.83
2018-01-25T18:58:34.184Z,97060.25
2018-01-25T19:01:02.887Z,97059.77
2018-01-25T19:03:30.737Z,97057.52
2018-01-25T19:05:58.947Z,97057.67
2018-01-25T19:08:26.912Z,97060.31
2018-01-25T19:10:56.505Z,97070.48
2018-01-25T19:13:24.373Z,97074.92
2018-01-25T19:15:52.333Z,97075.14
2018-01-25T19:18:20.289Z,97079.44
2018-01-25T19:20:48.273Z,97082.81
2018-01-25T19:23:16.446Z,97087.97
2018-01-25T19:25:44.257Z,97084.27
2018-01-25T19:28:12.166Z,97083.52
2018-01-25T19:30:40.133Z,97076.35
2018-01-25T19:33:08.282Z,97074.27
2018-01-25T19:35:36.583Z,97071.89
2018-01-25T19:38:04.358Z,97069.87
2018-01-25T19:40:32.121Z,97069.72
2018-01-25T19:42:59.978Z,97062.20
2018-01-25T19:45:27.847Z,97050.92
2018-01-25T19:47:56.235Z,97050.48
2018-01-25T19:50:24.153Z,97066.54
2018-01-25T19:52:52.058Z,97056.31
2018-01-25T19:55:19.951Z,97058.91
2018-01-25T19:57:47.858Z,97055.00
2018-01-25T20:00:16.578Z,97059.39
2018-01-25T20:02:44.346Z,97057.39
2018-01-25T20:05:13.234Z,97053.43
2018-01-25T20:07:41.929Z,97056.60
2018-01-25T20:10:10.161Z,97057.05
2018-01-25T20:12:38.267Z,97048.52
2018-01-25T20:15:06.234Z,97046.30
2018-01-25T20:17:34.011Z,97041.74
2018-01-25T20:20:01.970Z,97036.50
2018-01-25T20:22:30.349Z,97029.03
2018-01-25T20:24:58.419Z,97031.40
2018-01-25T20:27:26.751Z,97022.17
2018-01-25T20:29:54.664Z,97023.50
2018-01-25T20:32:22.591Z,97016.01
2018-01-25T20:34:50.357Z,97020.32
2018-01-25T20:37:19.490Z,97016.07
2018-01-25T20:39:47.610Z,97020.00
2018-01-25T20:42:15.844Z,97023.75
2018-01-25T20:44:44.197Z,97033.73
2018-01-25T20:47:12.040Z,97028.33
2018-01-25T20:49:39.847Z,97023.64
2018-01-25T20:52:07.918Z,97032.09
2018-01-25T20:54:35.699Z,97026.66
2018-01-25T20:57:03.570Z,97030.44
2018-01-25T20:59:31.414Z,97042.28
2018-01-25T21:01:59.489Z,97030.23
2018-01-25T21:04:27.561Z,97035.77
2018-01-25T21:06:55.525Z,97038.50
2018-01-25T21:09:23.385Z,97032.07
2018-01-25T21:11:51.172Z,97037.12
2018-01-25T21:14:19.232Z,97035.17
2018-01-25T21:16:47.011Z,97032.62
2018-01-25T21:19:14.959Z,97036.25
2018-01-25T21:21:43.621Z,97042.64
2018-01-25T21:24:11.411Z,97027.64
2018-01-25T21:26:40.609Z,97026.13
2018-01-25T21:29:08.385Z,97039.19
2018-01-25T21:31:36.565Z,97035.39
2018-01-25T21:34:10.869Z,97038.23
2018-01-25T21:36:38.729Z,97037.52
2018-01-25T21:39:06.989Z,97034.84
2018-01-25T21:41:35.071Z,97032.45
2018-01-25T21:44:02.742Z,97045.24
2018-01-25T21:46:31.490Z,97038.36
2018-01-25T21:48:59.359Z,97042.81
2018-01-25T21:51:27.565Z,97049.53
2018-01-25T21:53:55.329Z,97046.48
2018-01-25T21:56:22.940Z,97047.38
2018-01-25T21:58:50.634Z,97045.88
2018-01-25T22:01:18.261Z,97052.61
2018-01-25T22:03:45.854Z,97056.86
2018-01-25T22:06:13.469Z,97057.98
2018-01-25T22:08:41.093Z,97054.78
2018-01-25T22:11:08.756Z,97052.86
2018-01-25T22:13:36.270Z,97057.77
2018-01-25T22:16:03.949Z,97052.09
2018-01-25T22:18:31.523Z,97048.82
2018-01-25T22:20:59.197Z,97049.28
2018-01-25T22:23:26.802Z,97043.22
2018-01-25T22:25:54.308Z,97042.37
2018-01-25T22:28:21.885Z,97050.81
2018-01-25T22:30:49.435Z,97048.12
2018-01-25T22:33:16.944Z,97048.39
2018-01-25T22:35:44.480Z,97048.11
2018-01-25T22:38:12.009Z,97055.42
2018-01-25T22:40:39.764Z,97052.33
2018-01-25T22:43:07.276Z,97047.00
2018-01-25T22:45:34.786Z,97050.94
2018-01-25T22:48:02.336Z,97051.36
2018-01-25T22:50:29.846Z,97049.95
2018-01-25T22:52:57.389Z,97056.81
2018-01-25T22:55:24.924Z,97051.42
2018-01-25T22:57:52.483Z,97052.06
2018-01-25T23:00:31.923Z,97050.09
2018-01-25T23:02:59.438Z,97042.44
2018-01-25T23:05:26.996Z,97043.84
2018-01-25T23:07:54.508Z,97041.77
2018-01-25T23:10:22.100Z,97034.88
2018-01-25T23:12:49.616Z,97036.09
2018-01-25T23:15:17.208Z,97036.34
2018-01-25T23:17:44.909Z,97034.73
2018-01-25T23:20:12.417Z,97031.73
2018-01-25T23:22:39.952Z,97032.43
2018-01-25T23:25:07.512Z,97033.69
2018-01-25T23:27:35.023Z,97035.37
2018-01-25T23:30:02.651Z,97038.10
2018-01-25T23:32:30.129Z,97040.01
2018-01-25T23:34:57.641Z,97035.67
2018-01-25T23:37:25.181Z,97041.88
2018-01-25T23:39:52.693Z,97036.11
2018-01-25T23:42:20.939Z,97033.14
2018-01-25T23:44:48.445Z,97032.06
2018-01-25T23:47:15.955Z,97030.71
2018-01-25T23:49:43.513Z,97033.11
2018-01-25T23:52:11.073Z,97030.66
2018-01-25T23:54:38.836Z,97023.75
2018-01-25T23:57:06.348Z,97022.41
2018-01-25T23:59:33.857Z,97022.29
